Time;durP1;ratioP1;P1;durP2;ratioP2;P2;SDS_P1;SDS_P2;PMS_P1;PMS_P2;Temp;Humidity;BMP_temperature;BMP_pressure;BME280_temperature;BME280_humidity;BME280_pressure;Samples;Min_cycle;Max_cycle;Signal;HPM_P1;HPM_P2
2022/12/22 03:26:17;;;;;;;188.77;107.70;;;;;;;;;;4406461;32;318964;-83
2022/12/22 03:28:45;;;;;;;182.53;103.27;;;;;;;;;;4415625;32;319885;-82
2022/12/22 03:31:13;;;;;;;186.87;99.13;;;;;;;;;;4405255;32;320032;-82
2022/12/22 03:33:42;;;;;;;174.60;92.57;;;;;;;;;;4415844;32;318653;-76
2022/12/22 03:36:10;;;;;;;151.83;85.90;;;;;;;;;;4404354;32;318856;-80
2022/12/22 03:38:37;;;;;;;137.53;80.43;;;;;;;;;;4416137;32;318912;-83
2022/12/22 03:41:05;;;;;;;144.20;82.83;;;;;;;;;;4404409;32;318840;-83
2022/12/22 03:46:33;;;;;;;157.67;85.43;;;;;;;;;;4405986;32;319261;-83
2022/12/22 03:49:10;;;;;;;137.47;76.63;;;;;;;;;;4402932;32;319059;-82
2022/12/22 03:51:39;;;;;;;148.90;78.97;;;;;;;;;;4416469;32;318892;-83
2022/12/22 03:54:07;;;;;;;174.97;94.53;;;;;;;;;;4405427;32;318825;-82
2022/12/22 03:56:35;;;;;;;181.30;98.77;;;;;;;;;;4413294;32;318503;-80
2022/12/22 03:59:02;;;;;;;189.30;99.30;;;;;;;;;;4404148;32;318817;-82
2022/12/22 04:01:30;;;;;;;166.67;90.20;;;;;;;;;;4414773;32;319060;-81
2022/12/22 04:03:58;;;;;;;158.03;84.93;;;;;;;;;;4411308;32;319091;-82
2022/12/22 04:06:27;;;;;;;145.80;77.40;;;;;;;;;;4418707;32;318947;-83
2022/12/22 04:08:54;;;;;;;133.90;75.33;;;;;;;;;;4418233;32;319085;-83
2022/12/22 04:14:07;;;;;;;116.10;67.07;;;;;;;;;;4407691;32;318722;-80
2022/12/22 04:16:34;;;;;;;110.27;63.43;;;;;;;;;;4419230;32;318728;-80
2022/12/22 04:19:02;;;;;;;130.57;71.00;;;;;;;;;;4407772;32;318733;-80
2022/12/22 04:21:31;;;;;;;155.13;81.47;;;;;;;;;;4418848;32;318911;-82
2022/12/22 04:23:58;;;;;;;154.80;82.10;;;;;;;;;;4406596;32;379428;-81
2022/12/22 04:26:26;;;;;;;156.17;82.57;;;;;;;;;;4416939;32;318978;-81
2022/12/22 04:28:54;;;;;;;166.53;85.10;;;;;;;;;;4416910;32;318736;-82
2022/12/22 04:31:22;;;;;;;166.23;86.43;;;;;;;;;;4407062;32;348909;-82
2022/12/22 04:33:49;;;;;;;163.23;83.03;;;;;;;;;;4417980;32;330068;-81
2022/12/22 04:36:17;;;;;;;165.93;87.30;;;;;;;;;;4406523;32;318766;-81
2022/12/22 04:38:46;;;;;;;160.47;86.80;;;;;;;;;;4416236;32;320872;-82
2022/12/22 04:41:13;;;;;;;141.73;80.07;;;;;;;;;;4407046;32;319069;-80
2022/12/22 04:43:41;;;;;;;142.67;80.57;;;;;;;;;;4418968;32;318792;-82
2022/12/22 04:46:08;;;;;;;157.33;81.57;;;;;;;;;;4405708;32;318700;-82
2022/12/22 04:48:36;;;;;;;172.93;89.27;;;;;;;;;;4418743;32;318941;-82
2022/12/22 04:51:04;;;;;;;261.47;109.97;;;;;;;;;;4406712;32;318830;-82
2022/12/22 04:53:32;;;;;;;264.27;117.40;;;;;;;;;;4418953;32;319765;-82
2022/12/22 04:56:03;;;;;;;236.43;110.57;;;;;;;;;;4406500;32;319790;-81
2022/12/22 04:58:31;;;;;;;189.77;94.57;;;;;;;;;;4418547;32;320410;-80
2022/12/22 05:01:07;;;;;;;162.13;88.60;;;;;;;;;;4404267;32;382984;-80
2022/12/22 05:03:35;;;;;;;177.50;99.60;;;;;;;;;;4419108;32;318740;-82
2022/12/22 05:06:02;;;;;;;186.60;96.03;;;;;;;;;;4407362;32;318929;-84
2022/12/22 05:08:29;;;;;;;150.60;84.43;;;;;;;;;;4417435;32;319014;-83
2022/12/22 05:10:57;;;;;;;151.03;80.63;;;;;;;;;;4418403;32;318728;-84
2022/12/22 05:13:26;;;;;;;144.97;78.47;;;;;;;;;;4405015;32;418451;-81
2022/12/22 05:15:53;;;;;;;144.20;79.47;;;;;;;;;;4416306;32;318729;-80
2022/12/22 05:18:20;;;;;;;156.57;82.07;;;;;;;;;;4406414;32;319130;-81
2022/12/22 05:20:48;;;;;;;156.17;82.03;;;;;;;;;;4417869;32;318920;-80
2022/12/22 05:23:15;;;;;;;148.67;80.53;;;;;;;;;;4406467;32;318828;-82
2022/12/22 05:25:43;;;;;;;233.23;106.27;;;;;;;;;;4416295;32;318770;-82
2022/12/22 05:28:10;;;;;;;283.23;122.77;;;;;;;;;;4406312;32;319616;-80
2022/12/22 05:30:41;;;;;;;208.93;105.03;;;;;;;;;;4417110;32;319912;-81
2022/12/22 05:33:08;;;;;;;213.87;99.87;;;;;;;;;;4407289;32;319930;-81
2022/12/22 05:35:35;;;;;;;168.30;90.57;;;;;;;;;;4416187;32;318777;-79
2022/12/22 05:38:03;;;;;;;168.43;90.50;;;;;;;;;;4407192;32;319119;-81
2022/12/22 05:40:30;;;;;;;188.37;98.37;;;;;;;;;;4416449;32;342068;-81
2022/12/22 05:42:58;;;;;;;205.60;106.60;;;;;;;;;;4412933;32;318806;-80
2022/12/22 05:45:25;;;;;;;220.00;112.03;;;;;;;;;;4415873;32;320028;-82
2022/12/22 05:47:55;;;;;;;442.40;200.70;;;;;;;;;;4415841;32;319966;-81
2022/12/22 05:50:24;;;;;;;395.10;174.47;;;;;;;;;;4406091;32;319813;-83
2022/12/22 05:52:51;;;;;;;225.93;113.83;;;;;;;;;;4416648;32;319655;-83
2022/12/22 05:55:19;;;;;;;210.07;106.33;;;;;;;;;;4405742;32;319792;-82
2022/12/22 05:57:46;;;;;;;210.07;108.90;;;;;;;;;;4417606;32;319912;-81
2022/12/22 06:00:15;;;;;;;241.57;123.57;;;;;;;;;;4403257;32;319845;-82
2022/12/22 06:02:44;;;;;;;298.17;139.50;;;;;;;;;;4415337;32;319749;-82
2022/12/22 06:05:14;;;;;;;243.30;120.80;;;;;;;;;;4405754;32;319758;-82
2022/12/22 06:07:42;;;;;;;209.27;107.93;;;;;;;;;;4416601;32;319987;-82
2022/12/22 06:10:11;;;;;;;196.57;103.03;;;;;;;;;;4406658;32;319720;-82
2022/12/22 06:12:39;;;;;;;161.37;90.00;;;;;;;;;;4416709;32;320016;-81
2022/12/22 06:15:08;;;;;;;156.07;85.07;;;;;;;;;;4405096;32;318620;-83
2022/12/22 06:17:36;;;;;;;163.53;91.03;;;;;;;;;;4415731;32;318912;-82
2022/12/22 06:20:05;;;;;;;208.77;105.60;;;;;;;;;;4405227;32;318605;-80
2022/12/22 06:22:35;;;;;;;192.60;105.13;;;;;;;;;;4415539;32;319946;-83
2022/12/22 06:25:03;;;;;;;210.87;111.60;;;;;;;;;;4404353;32;319819;-79
2022/12/22 06:27:30;;;;;;;252.90;130.50;;;;;;;;;;4419789;32;319531;-84
2022/12/22 06:29:58;;;;;;;250.37;136.57;;;;;;;;;;4417940;32;320091;-82
2022/12/22 06:32:25;;;;;;;176.97;97.70;;;;;;;;;;4403778;32;421568;-81
2022/12/22 06:34:53;;;;;;;283.03;147.77;;;;;;;;;;4416028;32;351118;-83
2022/12/22 06:37:24;;;;;;;297.77;152.87;;;;;;;;;;4407024;32;320188;-83
2022/12/22 06:39:53;;;;;;;240.73;134.97;;;;;;;;;;4417366;32;320033;-81
2022/12/22 06:45:10;;;;;;;217.77;120.00;;;;;;;;;;4402425;32;319791;-78
2022/12/22 06:47:37;;;;;;;234.40;127.60;;;;;;;;;;4416965;32;318843;-78
2022/12/22 06:50:06;;;;;;;242.47;134.97;;;;;;;;;;4405426;32;320159;-82
2022/12/22 06:52:34;;;;;;;276.47;137.23;;;;;;;;;;4416759;32;326014;-85
2022/12/22 06:55:04;;;;;;;248.73;139.77;;;;;;;;;;4405313;32;319973;-85
2022/12/22 06:57:31;;;;;;;258.63;133.83;;;;;;;;;;4415590;32;319813;-83
2022/12/22 06:59:59;;;;;;;254.50;139.63;;;;;;;;;;4402133;32;331748;-81
2022/12/22 07:02:26;;;;;;;281.30;147.97;;;;;;;;;;4414342;32;320125;-82
2022/12/22 07:04:54;;;;;;;241.67;134.80;;;;;;;;;;4414619;32;319807;-83
2022/12/22 07:07:21;;;;;;;228.03;123.83;;;;;;;;;;4404276;32;319900;-83
2022/12/22 07:09:48;;;;;;;272.63;144.20;;;;;;;;;;4414847;32;319939;-79
2022/12/22 07:12:17;;;;;;;276.73;151.10;;;;;;;;;;4403309;32;319990;-81
2022/12/22 07:14:44;;;;;;;289.13;156.53;;;;;;;;;;4413348;32;319959;-80
2022/12/22 07:17:12;;;;;;;282.97;150.33;;;;;;;;;;4404217;32;319757;-80
2022/12/22 07:19:41;;;;;;;295.67;158.27;;;;;;;;;;4414828;32;319902;-84
2022/12/22 07:22:08;;;;;;;262.83;138.40;;;;;;;;;;4402629;32;319604;-81
2022/12/22 07:24:36;;;;;;;249.57;135.67;;;;;;;;;;4415474;32;319743;-83
2022/12/22 07:27:04;;;;;;;238.80;134.10;;;;;;;;;;4404102;32;319903;-83
2022/12/22 07:29:35;;;;;;;270.53;143.60;;;;;;;;;;4413900;32;319769;-81
2022/12/22 07:32:02;;;;;;;246.83;129.43;;;;;;;;;;4402528;32;320486;-83
2022/12/22 07:34:29;;;;;;;227.33;133.23;;;;;;;;;;4415412;32;319785;-82
2022/12/22 07:36:57;;;;;;;269.17;143.07;;;;;;;;;;4414077;32;319972;-83
2022/12/22 07:39:25;;;;;;;297.77;164.20;;;;;;;;;;4400862;32;419100;-79
2022/12/22 07:44:38;;;;;;;333.00;173.87;;;;;;;;;;4404371;32;389771;-85
2022/12/22 07:47:06;;;;;;;288.10;156.90;;;;;;;;;;4403695;32;319649;-80
2022/12/22 07:52:18;;;;;;;265.87;154.07;;;;;;;;;;4402354;32;319710;-80
2022/12/22 07:54:45;;;;;;;221.40;128.10;;;;;;;;;;4415202;32;319877;-82
2022/12/22 07:57:13;;;;;;;217.73;124.60;;;;;;;;;;4404307;32;319947;-80
2022/12/22 07:59:42;;;;;;;218.60;123.27;;;;;;;;;;4415252;32;319631;-79
2022/12/22 08:02:12;;;;;;;223.00;122.33;;;;;;;;;;4404791;32;320007;-81
2022/12/22 08:04:39;;;;;;;184.83;108.53;;;;;;;;;;4415726;32;320283;-80
2022/12/22 08:07:07;;;;;;;185.50;106.70;;;;;;;;;;4404052;32;320092;-83
2022/12/22 08:09:34;;;;;;;167.23;101.23;;;;;;;;;;4415682;32;319911;-84
2022/12/22 08:12:02;;;;;;;165.13;99.43;;;;;;;;;;4403950;32;319891;-86
2022/12/22 08:14:29;;;;;;;181.03;101.27;;;;;;;;;;4423991;32;318616;-87
2022/12/22 08:16:58;;;;;;;179.47;102.20;;;;;;;;;;4418934;32;319790;-86
2022/12/22 08:19:25;;;;;;;165.23;98.50;;;;;;;;;;4406705;32;419258;-87
2022/12/22 08:21:53;;;;;;;160.00;85.70;;;;;;;;;;4416571;32;318508;-87
2022/12/22 08:24:20;;;;;;;123.93;75.97;;;;;;;;;;4407704;32;318984;-82
2022/12/22 08:26:52;;;;;;;146.13;84.60;;;;;;;;;;4417330;32;318778;-86
2022/12/22 08:29:24;;;;;;;113.73;68.73;;;;;;;;;;4408162;32;318772;-83
2022/12/22 08:31:51;;;;;;;95.17;55.97;;;;;;;;;;4416348;32;318824;-84
2022/12/22 08:34:20;;;;;;;126.37;70.33;;;;;;;;;;4408139;32;318049;-87
2022/12/22 08:36:51;;;;;;;120.43;73.73;;;;;;;;;;4418250;32;318852;-88
2022/12/22 08:39:21;;;;;;;125.00;72.43;;;;;;;;;;4409204;32;319082;-88
2022/12/22 08:41:51;;;;;;;123.50;76.13;;;;;;;;;;4405419;32;318826;-86
2022/12/22 08:44:21;;;;;;;121.07;72.33;;;;;;;;;;4405263;32;318800;-83
2022/12/22 08:46:48;;;;;;;137.37;72.87;;;;;;;;;;4416245;32;318583;-81
2022/12/22 08:49:16;;;;;;;160.33;89.13;;;;;;;;;;4403488;32;318953;-81
2022/12/22 08:51:46;;;;;;;144.80;85.07;;;;;;;;;;4422445;32;318958;-83
2022/12/22 08:54:13;;;;;;;122.03;77.67;;;;;;;;;;4416978;32;318531;-85
2022/12/22 08:56:41;;;;;;;143.00;78.33;;;;;;;;;;4427291;32;318588;-77
2022/12/22 08:59:09;;;;;;;126.13;76.10;;;;;;;;;;4407399;32;318862;-81
2022/12/22 09:01:39;;;;;;;147.23;83.83;;;;;;;;;;4424904;32;317627;-82
2022/12/22 09:04:07;;;;;;;167.07;89.00;;;;;;;;;;4415675;32;319110;-84
2022/12/22 09:06:35;;;;;;;150.93;87.33;;;;;;;;;;4426894;32;318664;-80
2022/12/22 09:09:06;;;;;;;140.40;83.57;;;;;;;;;;4409898;32;318547;-81
2022/12/22 09:11:34;;;;;;;148.80;86.00;;;;;;;;;;4417329;32;319157;-83
2022/12/22 09:14:03;;;;;;;140.10;82.23;;;;;;;;;;4416176;32;318676;-80
2022/12/22 09:16:31;;;;;;;140.93;81.77;;;;;;;;;;4423345;32;318769;-84
2022/12/22 09:18:59;;;;;;;132.97;79.97;;;;;;;;;;4413850;32;318347;-79
2022/12/22 09:21:27;;;;;;;143.33;84.57;;;;;;;;;;4418603;32;318910;-82
2022/12/22 09:23:55;;;;;;;125.80;79.77;;;;;;;;;;4420646;32;318900;-79
2022/12/22 09:26:26;;;;;;;117.90;68.00;;;;;;;;;;4412949;32;319113;-84
2022/12/22 09:28:55;;;;;;;107.27;64.73;;;;;;;;;;4421080;32;318922;-86
2022/12/22 09:31:24;;;;;;;94.17;56.57;;;;;;;;;;4412195;32;318792;-86
2022/12/22 09:33:51;;;;;;;107.50;52.37;;;;;;;;;;4424947;32;317668;-80
2022/12/22 09:36:21;;;;;;;90.00;54.07;;;;;;;;;;4414066;32;332607;-86
2022/12/22 09:38:49;;;;;;;100.97;58.00;;;;;;;;;;4423138;32;317249;-79
2022/12/22 09:41:19;;;;;;;86.80;53.60;;;;;;;;;;4413651;32;318842;-84
2022/12/22 09:43:49;;;;;;;87.60;54.23;;;;;;;;;;4424409;32;317655;-83
2022/12/22 09:46:20;;;;;;;80.43;52.10;;;;;;;;;;4410692;32;317656;-87
2022/12/22 09:48:49;;;;;;;110.50;62.87;;;;;;;;;;4417128;32;317870;-84
2022/12/22 09:51:17;;;;;;;90.53;55.47;;;;;;;;;;4405444;32;319115;-82
2022/12/22 09:53:46;;;;;;;96.07;53.27;;;;;;;;;;4419536;32;317732;-84
2022/12/22 09:56:15;;;;;;;100.50;60.50;;;;;;;;;;4406967;32;317909;-79
2022/12/22 09:58:43;;;;;;;93.77;54.73;;;;;;;;;;4416408;32;319122;-79
2022/12/22 10:01:42;;;;;;;86.70;54.17;;;;;;;;;;4405606;32;317779;-77
2022/12/22 10:04:18;;;;;;;83.77;49.40;;;;;;;;;;4393980;32;318001;-79
2022/12/22 10:06:51;;;;;;;90.70;50.07;;;;;;;;;;4415935;32;318003;-80
2022/12/22 10:09:22;;;;;;;93.90;52.60;;;;;;;;;;4405676;32;317926;-77
2022/12/22 10:11:53;;;;;;;98.27;57.20;;;;;;;;;;4416488;32;317986;-77
2022/12/22 10:14:22;;;;;;;84.10;46.70;;;;;;;;;;4403843;32;318152;-80
2022/12/22 10:17:11;;;;;;;72.17;44.93;;;;;;;;;;4416982;32;318103;-78
2022/12/22 10:19:38;;;;;;;78.07;49.27;;;;;;;;;;4402510;32;418087;-82
2022/12/22 10:22:20;;;;;;;89.90;52.10;;;;;;;;;;4406338;32;317880;-78
2022/12/22 10:24:48;;;;;;;90.37;50.77;;;;;;;;;;4414433;32;318047;-78
2022/12/22 10:27:15;;;;;;;83.87;54.17;;;;;;;;;;4404780;32;317944;-77
2022/12/22 10:29:43;;;;;;;94.03;55.47;;;;;;;;;;4416101;32;317909;-79
2022/12/22 10:32:15;;;;;;;77.20;48.80;;;;;;;;;;4403211;32;317960;-77
2022/12/22 10:35:01;;;;;;;81.27;48.83;;;;;;;;;;4414712;32;317974;-79
2022/12/22 10:37:34;;;;;;;81.47;51.67;;;;;;;;;;4402350;32;417212;-78
2022/12/22 10:40:17;;;;;;;95.10;55.00;;;;;;;;;;4405489;32;342484;-79
2022/12/22 10:42:47;;;;;;;101.73;58.83;;;;;;;;;;4416387;32;317884;-79
2022/12/22 10:45:19;;;;;;;93.60;61.17;;;;;;;;;;4405721;32;318753;-79
2022/12/22 10:47:51;;;;;;;97.23;55.13;;;;;;;;;;4416259;32;317989;-78
2022/12/22 10:50:19;;;;;;;107.40;62.53;;;;;;;;;;4405343;32;318206;-78
2022/12/22 10:52:52;;;;;;;113.87;70.03;;;;;;;;;;4415715;32;319114;-78
2022/12/22 10:55:21;;;;;;;106.83;68.53;;;;;;;;;;4404302;32;355864;-77
2022/12/22 10:57:49;;;;;;;93.27;55.37;;;;;;;;;;4415213;32;319090;-78
2022/12/22 11:00:26;;;;;;;75.33;45.97;;;;;;;;;;4406339;32;318342;-78
2022/12/22 11:02:57;;;;;;;69.77;42.07;;;;;;;;;;4415761;32;317816;-79
2022/12/22 11:05:24;;;;;;;72.23;44.90;;;;;;;;;;4402408;32;416993;-79
2022/12/22 11:07:52;;;;;;;79.00;47.73;;;;;;;;;;4415234;32;325024;-79
2022/12/22 11:10:30;;;;;;;70.47;44.00;;;;;;;;;;4405081;32;317796;-79
2022/12/22 11:13:17;;;;;;;75.20;46.70;;;;;;;;;;4415500;32;318028;-78
2022/12/22 11:15:50;;;;;;;59.37;38.37;;;;;;;;;;4401768;32;418286;-79
2022/12/22 11:18:38;;;;;;;66.33;41.97;;;;;;;;;;4403597;32;317767;-78
2022/12/22 11:21:11;;;;;;;61.70;41.67;;;;;;;;;;4405645;32;317981;-81
2022/12/22 11:23:46;;;;;;;78.50;50.03;;;;;;;;;;4415351;32;318133;-77
2022/12/22 11:26:20;;;;;;;101.83;56.10;;;;;;;;;;4405861;32;317968;-79
2022/12/22 11:29:02;;;;;;;84.13;54.17;;;;;;;;;;4415826;32;319139;-81
2022/12/22 11:31:42;;;;;;;84.20;53.57;;;;;;;;;;4401777;32;418109;-81
2022/12/22 11:34:24;;;;;;;77.07;48.73;;;;;;;;;;4405785;32;317807;-82
2022/12/22 11:37:03;;;;;;;65.30;37.43;;;;;;;;;;4413372;32;317970;-80
2022/12/22 11:39:39;;;;;;;74.73;45.23;;;;;;;;;;4402217;32;418408;-78
2022/12/22 11:42:22;;;;;;;70.43;41.97;;;;;;;;;;4405931;32;317982;-78
2022/12/22 11:45:00;;;;;;;69.03;42.00;;;;;;;;;;4416325;32;317934;-79
2022/12/22 11:47:34;;;;;;;62.17;37.10;;;;;;;;;;4402621;32;417818;-78
2022/12/22 11:50:26;;;;;;;57.83;36.10;;;;;;;;;;4397738;32;318078;-80
2022/12/22 11:53:05;;;;;;;62.80;37.23;;;;;;;;;;4405208;32;316585;-80
2022/12/22 11:55:36;;;;;;;63.37;36.33;;;;;;;;;;4401735;32;420437;-78
2022/12/22 11:58:21;;;;;;;61.23;39.47;;;;;;;;;;4402442;32;317921;-77
2022/12/22 12:00:56;;;;;;;223.33;124.23;;;;;;;;;;4414732;32;317991;-77
2022/12/22 12:03:54;;;;;;;66.10;40.97;;;;;;;;;;4401155;32;420348;-79
2022/12/22 12:06:50;;;;;;;67.97;41.10;;;;;;;;;;4403512;32;317977;-79
2022/12/22 12:09:34;;;;;;;101.50;65.27;;;;;;;;;;4405368;32;318004;-79
2022/12/22 12:12:11;;;;;;;55.03;34.13;;;;;;;;;;4403217;32;318949;-79
2022/12/22 12:14:44;;;;;;;52.70;33.97;;;;;;;;;;4414264;32;318033;-82
2022/12/22 12:17:19;;;;;;;62.47;37.83;;;;;;;;;;4404732;32;317725;-77
2022/12/22 12:20:03;;;;;;;66.53;42.63;;;;;;;;;;4414913;32;317817;-78
2022/12/22 12:22:45;;;;;;;56.13;34.57;;;;;;;;;;4403717;32;388764;-79
2022/12/22 12:25:26;;;;;;;56.13;33.60;;;;;;;;;;4407177;32;318062;-77
2022/12/22 12:28:10;;;;;;;53.93;35.00;;;;;;;;;;4418736;32;318112;-78
2022/12/22 12:30:49;;;;;;;72.07;41.13;;;;;;;;;;4405971;32;418177;-77
2022/12/22 12:33:19;;;;;;;77.80;41.10;;;;;;;;;;4406663;32;318001;-79
2022/12/22 12:35:54;;;;;;;71.93;40.43;;;;;;;;;;4418177;32;317644;-77
2022/12/22 12:38:33;;;;;;;70.97;40.17;;;;;;;;;;4406231;32;321665;-81
2022/12/22 12:41:09;;;;;;;66.90;40.23;;;;;;;;;;4405909;32;317786;-78
2022/12/22 12:43:37;;;;;;;75.87;41.73;;;;;;;;;;4418708;32;317763;-79
2022/12/22 12:46:34;;;;;;;66.93;44.03;;;;;;;;;;4407859;32;317861;-78
2022/12/22 12:49:02;;;;;;;69.07;42.40;;;;;;;;;;4398754;32;318272;-78
2022/12/22 12:51:49;;;;;;;84.43;47.27;;;;;;;;;;4417655;32;317780;-79
2022/12/22 12:54:38;;;;;;;80.13;47.67;;;;;;;;;;4407349;32;317872;-78
2022/12/22 12:57:29;;;;;;;90.17;49.20;;;;;;;;;;4397765;32;317698;-80
2022/12/22 12:59:58;;;;;;;80.03;44.37;;;;;;;;;;4418315;32;317738;-82
2022/12/22 13:02:38;;;;;;;80.03;43.17;;;;;;;;;;4405400;32;418498;-80
2022/12/22 13:05:26;;;;;;;84.23;51.47;;;;;;;;;;4407729;32;317771;-84
2022/12/22 13:08:13;;;;;;;79.37;46.90;;;;;;;;;;4420400;32;317544;-86
2022/12/22 13:10:47;;;;;;;72.73;44.63;;;;;;;;;;4407216;32;418175;-83
2022/12/22 13:13:52;;;;;;;107.63;54.50;;;;;;;;;;4409186;32;318098;-83
2022/12/22 13:16:25;;;;;;;103.50;50.27;;;;;;;;;;4409898;32;318870;-84
2022/12/22 13:18:57;;;;;;;88.77;53.47;;;;;;;;;;4418736;32;318724;-82
2022/12/22 13:21:29;;;;;;;112.23;60.73;;;;;;;;;;4403199;32;418238;-80
2022/12/22 13:24:13;;;;;;;104.20;54.20;;;;;;;;;;4417494;32;318982;-80
2022/12/22 13:26:45;;;;;;;61.73;38.13;;;;;;;;;;4402507;32;422471;-84
2022/12/22 13:29:24;;;;;;;60.90;37.93;;;;;;;;;;4402915;32;317867;-81
2022/12/22 13:31:58;;;;;;;71.93;37.47;;;;;;;;;;4415521;32;317879;-82
2022/12/22 13:34:53;;;;;;;66.83;39.33;;;;;;;;;;4392614;32;389785;-80
2022/12/22 13:37:25;;;;;;;94.37;54.40;;;;;;;;;;4406857;32;317803;-83
2022/12/22 13:40:11;;;;;;;122.70;72.70;;;;;;;;;;4417096;32;317769;-81
2022/12/22 13:42:43;;;;;;;179.00;107.10;;;;;;;;;;4404812;32;419414;-84
2022/12/22 13:45:28;;;;;;;255.00;147.90;;;;;;;;;;4405982;32;331280;-84
2022/12/22 13:47:56;;;;;;;289.93;178.87;;;;;;;;;;4416299;32;319998;-82
2022/12/22 13:50:26;;;;;;;158.60;103.40;;;;;;;;;;4403144;32;421295;-80
2022/12/22 13:52:56;;;;;;;149.00;98.17;;;;;;;;;;4416655;32;319958;-81
2022/12/22 13:55:27;;;;;;;135.13;84.97;;;;;;;;;;4403374;32;389065;-83
2022/12/22 13:57:59;;;;;;;139.03;85.03;;;;;;;;;;4416627;32;318728;-82
2022/12/22 14:00:28;;;;;;;175.00;99.27;;;;;;;;;;4403882;32;417958;-82
2022/12/22 14:02:56;;;;;;;168.07;95.83;;;;;;;;;;4417790;32;318889;-80
2022/12/22 14:05:23;;;;;;;143.20;86.97;;;;;;;;;;4407352;32;318832;-82
2022/12/22 14:08:04;;;;;;;133.63;81.13;;;;;;;;;;4416864;32;318862;-82
2022/12/22 14:10:36;;;;;;;137.80;82.83;;;;;;;;;;4404010;32;418227;-78
2022/12/22 14:13:07;;;;;;;134.50;82.70;;;;;;;;;;4404189;32;373190;-80
2022/12/22 14:15:35;;;;;;;138.50;83.43;;;;;;;;;;4416757;32;318685;-81
2022/12/22 14:18:02;;;;;;;165.80;88.77;;;;;;;;;;4403793;32;318890;-83
2022/12/22 14:20:34;;;;;;;144.87;86.30;;;;;;;;;;4417647;32;318797;-81
2022/12/22 14:23:06;;;;;;;151.93;89.50;;;;;;;;;;4402546;32;319453;-78
2022/12/22 14:25:36;;;;;;;151.20;92.30;;;;;;;;;;4415446;32;344096;-81
2022/12/22 14:28:06;;;;;;;170.13;99.10;;;;;;;;;;4405785;32;318847;-79
2022/12/22 14:30:37;;;;;;;176.10;100.53;;;;;;;;;;4416826;32;318712;-83
2022/12/22 14:33:26;;;;;;;174.33;102.73;;;;;;;;;;4404019;32;319898;-82
2022/12/22 14:36:14;;;;;;;168.37;101.37;;;;;;;;;;4417363;32;319758;-82
2022/12/22 14:38:43;;;;;;;167.70;101.73;;;;;;;;;;4402832;32;420594;-80
2022/12/22 14:41:40;;;;;;;180.93;105.50;;;;;;;;;;4404903;32;319852;-79
2022/12/22 14:44:02;;;;;;;173.40;103.03;;;;;;;;;;4406007;32;319799;-81
2022/12/22 14:46:30;;;;;;;169.77;102.50;;;;;;;;;;4416617;32;319894;-80
2022/12/22 14:48:59;;;;;;;191.13;109.83;;;;;;;;;;4417075;32;319822;-81
2022/12/22 14:51:28;;;;;;;200.97;124.53;;;;;;;;;;4403602;32;389959;-78
2022/12/22 14:53:57;;;;;;;223.03;128.87;;;;;;;;;;4416093;32;342897;-78
2022/12/22 14:56:28;;;;;;;221.30;134.17;;;;;;;;;;4393615;32;419686;-78
2022/12/22 14:59:10;;;;;;;228.00;131.57;;;;;;;;;;4405150;32;319957;-78
2022/12/22 15:01:38;;;;;;;230.27;133.23;;;;;;;;;;4403974;32;390166;-81
2022/12/22 15:04:15;;;;;;;250.07;141.43;;;;;;;;;;4403084;32;319958;-76
2022/12/22 15:06:44;;;;;;;249.70;141.67;;;;;;;;;;4416817;32;320131;-82
2022/12/22 15:09:26;;;;;;;222.37;119.37;;;;;;;;;;4406355;32;319983;-78
2022/12/22 15:12:02;;;;;;;205.67;110.83;;;;;;;;;;4415777;32;319935;-80
2022/12/22 15:14:34;;;;;;;187.53;102.00;;;;;;;;;;4402977;32;419325;-78
2022/12/22 15:17:02;;;;;;;197.53;110.33;;;;;;;;;;4403042;32;320533;-79
2022/12/22 15:19:31;;;;;;;178.20;104.33;;;;;;;;;;4414306;32;319947;-80
2022/12/22 15:21:59;;;;;;;242.57;128.90;;;;;;;;;;4405778;32;319970;-78
2022/12/22 15:24:28;;;;;;;187.50;107.70;;;;;;;;;;4415393;32;319854;-84
2022/12/22 15:26:56;;;;;;;183.03;99.30;;;;;;;;;;4413972;32;320004;-83
2022/12/22 15:29:24;;;;;;;185.50;99.77;;;;;;;;;;4403138;32;418763;-81
2022/12/22 15:31:53;;;;;;;204.90;108.77;;;;;;;;;;4415686;32;319438;-79
2022/12/22 15:34:25;;;;;;;185.53;97.77;;;;;;;;;;4404840;32;319963;-80
2022/12/22 15:36:52;;;;;;;159.83;86.47;;;;;;;;;;4415011;32;318843;-78
2022/12/22 15:39:22;;;;;;;149.87;82.73;;;;;;;;;;4404694;32;318783;-79
2022/12/22 15:41:50;;;;;;;151.33;84.50;;;;;;;;;;4416494;32;318790;-79
2022/12/22 15:44:17;;;;;;;157.93;87.33;;;;;;;;;;4406214;32;318884;-79
2022/12/22 15:46:51;;;;;;;164.13;91.27;;;;;;;;;;4416929;32;318696;-79
2022/12/22 15:49:22;;;;;;;165.70;94.73;;;;;;;;;;4405680;32;318926;-81
2022/12/22 15:51:53;;;;;;;182.53;99.33;;;;;;;;;;4414304;32;318745;-77
2022/12/22 15:54:21;;;;;;;173.80;95.37;;;;;;;;;;4405786;32;319040;-78
2022/12/22 15:56:51;;;;;;;150.33;86.60;;;;;;;;;;4413948;32;319009;-77
2022/12/22 15:59:22;;;;;;;171.50;102.20;;;;;;;;;;4406821;32;318793;-77
2022/12/22 16:01:50;;;;;;;182.00;101.80;;;;;;;;;;4418878;32;319721;-79
2022/12/22 16:04:21;;;;;;;173.37;100.20;;;;;;;;;;4408576;32;319979;-79
2022/12/22 16:06:49;;;;;;;158.67;92.47;;;;;;;;;;4419488;32;319845;-77
2022/12/22 16:09:20;;;;;;;149.93;89.43;;;;;;;;;;4407138;32;318680;-78
2022/12/22 16:11:48;;;;;;;153.70;87.23;;;;;;;;;;4418822;32;318855;-78
2022/12/22 16:14:18;;;;;;;140.33;81.87;;;;;;;;;;4407977;32;319049;-78
2022/12/22 16:16:47;;;;;;;142.53;79.87;;;;;;;;;;4417926;32;318722;-78
2022/12/22 16:19:15;;;;;;;134.17;75.07;;;;;;;;;;4408278;32;318671;-79
2022/12/22 16:21:46;;;;;;;130.13;77.60;;;;;;;;;;4419346;32;318925;-80
2022/12/22 16:24:24;;;;;;;139.53;82.10;;;;;;;;;;4408186;32;319196;-81
2022/12/22 16:26:51;;;;;;;167.47;95.63;;;;;;;;;;4418248;32;318867;-82
2022/12/22 16:29:19;;;;;;;189.83;104.07;;;;;;;;;;4408114;32;318679;-78
2022/12/22 16:31:48;;;;;;;154.67;95.43;;;;;;;;;;4417732;32;319870;-80
2022/12/22 16:34:15;;;;;;;148.40;80.67;;;;;;;;;;4407928;32;318921;-80
2022/12/22 16:36:44;;;;;;;141.23;81.47;;;;;;;;;;4419170;32;318954;-82
2022/12/22 16:39:12;;;;;;;143.17;84.03;;;;;;;;;;4406957;32;318807;-83
2022/12/22 16:41:39;;;;;;;178.60;95.73;;;;;;;;;;4420358;32;319025;-82
2022/12/22 16:44:09;;;;;;;166.23;99.23;;;;;;;;;;4405457;32;318522;-81
2022/12/22 16:46:38;;;;;;;179.27;104.13;;;;;;;;;;4418960;32;318687;-85
2022/12/22 16:49:08;;;;;;;179.93;100.63;;;;;;;;;;4407423;32;320373;-84
2022/12/22 16:51:39;;;;;;;187.10;105.43;;;;;;;;;;4418743;32;320054;-81
2022/12/22 16:54:13;;;;;;;190.33;108.67;;;;;;;;;;4407307;32;319914;-80
2022/12/22 16:56:41;;;;;;;177.93;103.50;;;;;;;;;;4417625;32;320007;-83
2022/12/22 16:59:09;;;;;;;187.80;107.37;;;;;;;;;;4408489;32;319782;-83
2022/12/22 17:01:39;;;;;;;191.07;108.37;;;;;;;;;;4418279;32;319838;-79
2022/12/22 17:04:10;;;;;;;184.50;107.97;;;;;;;;;;4408419;32;320103;-81
2022/12/22 17:06:37;;;;;;;184.00;106.23;;;;;;;;;;4417793;32;319721;-80
2022/12/22 17:09:11;;;;;;;178.13;99.73;;;;;;;;;;4407826;32;319913;-81
2022/12/22 17:11:38;;;;;;;178.07;97.00;;;;;;;;;;4418559;32;318647;-79
2022/12/22 17:14:08;;;;;;;174.93;101.20;;;;;;;;;;4406268;32;319267;-82
2022/12/22 17:16:35;;;;;;;183.83;103.60;;;;;;;;;;4417499;32;319660;-80
2022/12/22 17:19:02;;;;;;;187.23;103.07;;;;;;;;;;4404899;32;320019;-78
2022/12/22 17:21:30;;;;;;;179.73;99.27;;;;;;;;;;4418530;32;320152;-78
2022/12/22 17:24:02;;;;;;;167.10;94.60;;;;;;;;;;4417255;32;318794;-78
2022/12/22 17:26:34;;;;;;;168.47;95.23;;;;;;;;;;4403998;32;418521;-79
2022/12/22 17:29:01;;;;;;;169.77;95.93;;;;;;;;;;4407031;32;319035;-77
2022/12/22 17:31:29;;;;;;;180.97;94.33;;;;;;;;;;4416505;32;319181;-79
2022/12/22 17:33:57;;;;;;;157.47;90.57;;;;;;;;;;4417402;32;318724;-79
2022/12/22 17:36:32;;;;;;;166.27;90.43;;;;;;;;;;4404187;32;421016;-78
2022/12/22 17:39:00;;;;;;;167.33;89.23;;;;;;;;;;4407884;32;318998;-80
2022/12/22 17:41:27;;;;;;;166.67;86.17;;;;;;;;;;4416882;32;318834;-80
2022/12/22 17:43:56;;;;;;;141.13;78.47;;;;;;;;;;4417755;32;318565;-79
2022/12/22 17:46:24;;;;;;;132.93;71.57;;;;;;;;;;4404657;32;418397;-80
2022/12/22 17:48:51;;;;;;;123.63;68.27;;;;;;;;;;4417787;32;318758;-78
2022/12/22 17:51:21;;;;;;;129.93;64.40;;;;;;;;;;4405730;32;319027;-85
2022/12/22 17:53:49;;;;;;;100.97;59.97;;;;;;;;;;4418507;32;318503;-83